sensor_id;sensor_type;location;lat;lon;timestamp;P1;durP1;ratioP1;P2;durP2;ratioP2
54795;SDS011;40693;43.884;20.340;2022-07-24T00:00:35;12.85;;;10.13;;
54795;SDS011;40693;43.884;20.340;2022-07-24T00:03:01;16.67;;;9.05;;
54795;SDS011;40693;43.884;20.340;2022-07-24T00:05:27;10.57;;;9.27;;
54795;SDS011;40693;43.884;20.340;2022-07-24T00:07:53;12.20;;;9.60;;
54795;SDS011;40693;43.884;20.340;2022-07-24T00:10:19;9.55;;;8.57;;
54795;SDS011;40693;43.884;20.340;2022-07-24T00:12:45;11.75;;;9.73;;
54795;SDS011;40693;43.884;20.340;2022-07-24T00:15:11;10.23;;;8.95;;
54795;SDS011;40693;43.884;20.340;2022-07-24T00:17:37;12.32;;;9.27;;
54795;SDS011;40693;43.884;20.340;2022-07-24T00:20:04;12.00;;;9.68;;
54795;SDS011;40693;43.884;20.340;2022-07-24T00:22:31;12.95;;;8.90;;
54795;SDS011;40693;43.884;20.340;2022-07-24T00:24:57;12.73;;;9.13;;
54795;SDS011;40693;43.884;20.340;2022-07-24T00:27:22;10.85;;;9.85;;
54795;SDS011;40693;43.884;20.340;2022-07-24T00:29:49;11.73;;;10.48;;
54795;SDS011;40693;43.884;20.340;2022-07-24T00:32:15;11.82;;;10.20;;
54795;SDS011;40693;43.884;20.340;2022-07-24T00:34:40;11.40;;;9.93;;
54795;SDS011;40693;43.884;20.340;2022-07-24T00:37:06;14.93;;;10.43;;
54795;SDS011;40693;43.884;20.340;2022-07-24T00:39:32;11.07;;;9.88;;
54795;SDS011;40693;43.884;20.340;2022-07-24T00:41:58;13.70;;;10.52;;
54795;SDS011;40693;43.884;20.340;2022-07-24T00:44:24;12.32;;;9.50;;
54795;SDS011;40693;43.884;20.340;2022-07-24T00:46:49;17.60;;;10.90;;
54795;SDS011;40693;43.884;20.340;2022-07-24T00:49:16;11.70;;;10.52;;
54795;SDS011;40693;43.884;20.340;2022-07-24T00:51:44;13.52;;;10.15;;
54795;SDS011;40693;43.884;20.340;2022-07-24T00:54:12;10.82;;;9.73;;
54795;SDS011;40693;43.884;20.340;2022-07-24T00:56:43;11.68;;;10.35;;
54795;SDS011;40693;43.884;20.340;2022-07-24T00:59:11;10.50;;;9.43;;
54795;SDS011;40693;43.884;20.340;2022-07-24T01:01:37;12.80;;;11.02;;
54795;SDS011;40693;43.884;20.340;2022-07-24T01:04:03;14.43;;;10.77;;
54795;SDS011;40693;43.884;20.340;2022-07-24T01:06:29;15.43;;;11.38;;
54795;SDS011;40693;43.884;20.340;2022-07-24T01:08:55;15.50;;;10.32;;
54795;SDS011;40693;43.884;20.340;2022-07-24T01:11:20;11.45;;;10.18;;
54795;SDS011;40693;43.884;20.340;2022-07-24T01:13:47;11.75;;;10.38;;
54795;SDS011;40693;43.884;20.340;2022-07-24T01:16:14;15.70;;;10.48;;
54795;SDS011;40693;43.884;20.340;2022-07-24T01:18:40;12.80;;;9.82;;
54795;SDS011;40693;43.884;20.340;2022-07-24T01:21:06;12.75;;;11.00;;
54795;SDS011;40693;43.884;20.340;2022-07-24T01:23:33;14.48;;;10.75;;
54795;SDS011;40693;43.884;20.340;2022-07-24T01:25:59;15.18;;;10.02;;
54795;SDS011;40693;43.884;20.340;2022-07-24T01:28:25;12.65;;;11.20;;
54795;SDS011;40693;43.884;20.340;2022-07-24T01:30:51;14.38;;;10.73;;
54795;SDS011;40693;43.884;20.340;2022-07-24T01:33:17;14.65;;;10.80;;
54795;SDS011;40693;43.884;20.340;2022-07-24T01:35:43;13.35;;;10.50;;
54795;SDS011;40693;43.884;20.340;2022-07-24T01:38:09;12.07;;;10.20;;
54795;SDS011;40693;43.884;20.340;2022-07-24T01:40:38;12.07;;;10.45;;
54795;SDS011;40693;43.884;20.340;2022-07-24T01:43:04;14.25;;;12.55;;
54795;SDS011;40693;43.884;20.340;2022-07-24T01:45:31;12.98;;;10.20;;
54795;SDS011;40693;43.884;20.340;2022-07-24T01:47:57;13.63;;;10.70;;
54795;SDS011;40693;43.884;20.340;2022-07-24T01:50:23;14.65;;;10.05;;
54795;SDS011;40693;43.884;20.340;2022-07-24T01:52:49;14.45;;;10.57;;
54795;SDS011;40693;43.884;20.340;2022-07-24T01:55:15;13.30;;;11.27;;
54795;SDS011;40693;43.884;20.340;2022-07-24T01:57:41;14.57;;;10.77;;
54795;SDS011;40693;43.884;20.340;2022-07-24T02:00:07;14.75;;;11.98;;
54795;SDS011;40693;43.884;20.340;2022-07-24T02:02:38;13.07;;;10.15;;
54795;SDS011;40693;43.884;20.340;2022-07-24T02:05:04;13.30;;;11.93;;
54795;SDS011;40693;43.884;20.340;2022-07-24T02:07:30;15.02;;;10.73;;
54795;SDS011;40693;43.884;20.340;2022-07-24T02:09:56;12.85;;;11.52;;
54795;SDS011;40693;43.884;20.340;2022-07-24T02:12:22;16.83;;;11.23;;
54795;SDS011;40693;43.884;20.340;2022-07-24T02:14:47;12.70;;;10.32;;
54795;SDS011;40693;43.884;20.340;2022-07-24T02:17:13;12.48;;;10.82;;
54795;SDS011;40693;43.884;20.340;2022-07-24T02:19:39;12.02;;;10.38;;
54795;SDS011;40693;43.884;20.340;2022-07-24T02:22:04;13.95;;;11.00;;
54795;SDS011;40693;43.884;20.340;2022-07-24T02:24:30;15.65;;;11.13;;
54795;SDS011;40693;43.884;20.340;2022-07-24T02:26:56;14.18;;;11.80;;
54795;SDS011;40693;43.884;20.340;2022-07-24T02:29:22;15.98;;;11.18;;
54795;SDS011;40693;43.884;20.340;2022-07-24T02:31:48;13.38;;;10.48;;
54795;SDS011;40693;43.884;20.340;2022-07-24T02:34:13;16.95;;;11.25;;
54795;SDS011;40693;43.884;20.340;2022-07-24T02:36:39;16.77;;;10.90;;
54795;SDS011;40693;43.884;20.340;2022-07-24T02:39:05;16.55;;;11.38;;
54795;SDS011;40693;43.884;20.340;2022-07-24T02:41:30;13.10;;;11.48;;
54795;SDS011;40693;43.884;20.340;2022-07-24T02:43:56;13.85;;;11.93;;
54795;SDS011;40693;43.884;20.340;2022-07-24T02:46:22;11.45;;;10.35;;
54795;SDS011;40693;43.884;20.340;2022-07-24T02:48:48;13.38;;;11.90;;
54795;SDS011;40693;43.884;20.340;2022-07-24T02:51:13;14.50;;;12.30;;
54795;SDS011;40693;43.884;20.340;2022-07-24T02:53:39;12.57;;;11.27;;
54795;SDS011;40693;43.884;20.340;2022-07-24T02:56:05;12.82;;;11.20;;
54795;SDS011;40693;43.884;20.340;2022-07-24T02:58:31;12.98;;;11.32;;
54795;SDS011;40693;43.884;20.340;2022-07-24T03:00:57;14.73;;;11.60;;
54795;SDS011;40693;43.884;20.340;2022-07-24T03:03:23;17.58;;;11.90;;
54795;SDS011;40693;43.884;20.340;2022-07-24T03:05:49;13.63;;;11.93;;
54795;SDS011;40693;43.884;20.340;2022-07-24T03:08:15;14.70;;;12.50;;
54795;SDS011;40693;43.884;20.340;2022-07-24T03:10:41;12.35;;;11.07;;
54795;SDS011;40693;43.884;20.340;2022-07-24T03:13:07;14.07;;;11.48;;
54795;SDS011;40693;43.884;20.340;2022-07-24T03:15:33;15.32;;;11.27;;
54795;SDS011;40693;43.884;20.340;2022-07-24T03:17:59;14.63;;;11.93;;
54795;SDS011;40693;43.884;20.340;2022-07-24T03:20:25;20.50;;;12.02;;
54795;SDS011;40693;43.884;20.340;2022-07-24T03:22:53;16.70;;;12.60;;
54795;SDS011;40693;43.884;20.340;2022-07-24T03:25:20;22.08;;;12.38;;
54795;SDS011;40693;43.884;20.340;2022-07-24T03:27:46;12.32;;;10.63;;
54795;SDS011;40693;43.884;20.340;2022-07-24T03:30:13;14.90;;;12.10;;
54795;SDS011;40693;43.884;20.340;2022-07-24T03:32:39;14.30;;;11.20;;
54795;SDS011;40693;43.884;20.340;2022-07-24T03:35:05;18.77;;;11.10;;
54795;SDS011;40693;43.884;20.340;2022-07-24T03:37:31;13.55;;;12.23;;
54795;SDS011;40693;43.884;20.340;2022-07-24T03:39:57;13.73;;;12.15;;
54795;SDS011;40693;43.884;20.340;2022-07-24T03:42:23;13.52;;;12.05;;
54795;SDS011;40693;43.884;20.340;2022-07-24T03:44:49;12.82;;;11.52;;
54795;SDS011;40693;43.884;20.340;2022-07-24T03:47:15;12.75;;;11.57;;
54795;SDS011;40693;43.884;20.340;2022-07-24T03:49:41;14.77;;;12.20;;
54795;SDS011;40693;43.884;20.340;2022-07-24T03:52:07;12.80;;;11.52;;
54795;SDS011;40693;43.884;20.340;2022-07-24T03:54:33;18.38;;;13.50;;
54795;SDS011;40693;43.884;20.340;2022-07-24T03:56:58;12.48;;;11.25;;
54795;SDS011;40693;43.884;20.340;2022-07-24T03:59:24;14.95;;;12.27;;
54795;SDS011;40693;43.884;20.340;2022-07-24T04:01:50;15.10;;;11.85;;
54795;SDS011;40693;43.884;20.340;2022-07-24T04:04:16;15.48;;;12.57;;
54795;SDS011;40693;43.884;20.340;2022-07-24T04:06:42;13.77;;;12.45;;
54795;SDS011;40693;43.884;20.340;2022-07-24T04:09:09;14.13;;;12.60;;
54795;SDS011;40693;43.884;20.340;2022-07-24T04:11:35;12.77;;;11.57;;
54795;SDS011;40693;43.884;20.340;2022-07-24T04:14:00;15.52;;;12.52;;
54795;SDS011;40693;43.884;20.340;2022-07-24T04:16:26;17.45;;;15.57;;
54795;SDS011;40693;43.884;20.340;2022-07-24T04:18:53;16.65;;;14.82;;
54795;SDS011;40693;43.884;20.340;2022-07-24T04:21:19;15.73;;;13.43;;
54795;SDS011;40693;43.884;20.340;2022-07-24T04:23:45;13.70;;;12.38;;
54795;SDS011;40693;43.884;20.340;2022-07-24T04:26:10;19.33;;;12.20;;
54795;SDS011;40693;43.884;20.340;2022-07-24T04:28:36;16.40;;;11.07;;
54795;SDS011;40693;43.884;20.340;2022-07-24T04:31:02;14.55;;;10.52;;
54795;SDS011;40693;43.884;20.340;2022-07-24T04:33:28;13.60;;;10.85;;
54795;SDS011;40693;43.884;20.340;2022-07-24T04:35:54;13.60;;;10.27;;
54795;SDS011;40693;43.884;20.340;2022-07-24T04:38:20;12.20;;;10.98;;
54795;SDS011;40693;43.884;20.340;2022-07-24T04:40:46;14.50;;;11.23;;
54795;SDS011;40693;43.884;20.340;2022-07-24T04:43:11;25.65;;;11.27;;
54795;SDS011;40693;43.884;20.340;2022-07-24T04:45:37;14.68;;;10.65;;
54795;SDS011;40693;43.884;20.340;2022-07-24T04:48:04;15.57;;;10.45;;
54795;SDS011;40693;43.884;20.340;2022-07-24T04:50:30;15.88;;;11.52;;
54795;SDS011;40693;43.884;20.340;2022-07-24T04:52:57;16.63;;;11.55;;
54795;SDS011;40693;43.884;20.340;2022-07-24T04:55:22;16.13;;;11.40;;
54795;SDS011;40693;43.884;20.340;2022-07-24T04:57:48;12.00;;;10.50;;
54795;SDS011;40693;43.884;20.340;2022-07-24T05:00:14;13.73;;;10.23;;
54795;SDS011;40693;43.884;20.340;2022-07-24T05:02:40;15.75;;;9.40;;
54795;SDS011;40693;43.884;20.340;2022-07-24T05:05:06;14.40;;;10.75;;
54795;SDS011;40693;43.884;20.340;2022-07-24T05:07:32;23.10;;;10.20;;
54795;SDS011;40693;43.884;20.340;2022-07-24T05:09:58;16.40;;;10.95;;
54795;SDS011;40693;43.884;20.340;2022-07-24T05:12:25;15.15;;;10.10;;
54795;SDS011;40693;43.884;20.340;2022-07-24T05:14:51;15.15;;;10.02;;
54795;SDS011;40693;43.884;20.340;2022-07-24T05:17:17;19.88;;;9.82;;
54795;SDS011;40693;43.884;20.340;2022-07-24T05:19:42;17.67;;;10.43;;
54795;SDS011;40693;43.884;20.340;2022-07-24T05:22:08;15.80;;;10.85;;
54795;SDS011;40693;43.884;20.340;2022-07-24T05:24:35;21.58;;;10.40;;
54795;SDS011;40693;43.884;20.340;2022-07-24T05:27:01;13.38;;;11.00;;
54795;SDS011;40693;43.884;20.340;2022-07-24T05:29:26;22.40;;;11.85;;
54795;SDS011;40693;43.884;20.340;2022-07-24T05:31:52;17.05;;;10.90;;
54795;SDS011;40693;43.884;20.340;2022-07-24T05:34:19;21.75;;;11.88;;
54795;SDS011;40693;43.884;20.340;2022-07-24T05:36:46;20.20;;;11.45;;
54795;SDS011;40693;43.884;20.340;2022-07-24T05:39:12;12.60;;;10.15;;
54795;SDS011;40693;43.884;20.340;2022-07-24T05:41:38;16.90;;;11.98;;
54795;SDS011;40693;43.884;20.340;2022-07-24T05:44:04;20.27;;;11.52;;
54795;SDS011;40693;43.884;20.340;2022-07-24T05:46:30;14.52;;;11.32;;
54795;SDS011;40693;43.884;20.340;2022-07-24T05:48:55;19.38;;;11.80;;
54795;SDS011;40693;43.884;20.340;2022-07-24T05:51:21;22.75;;;12.32;;
54795;SDS011;40693;43.884;20.340;2022-07-24T05:53:47;19.67;;;12.32;;
54795;SDS011;40693;43.884;20.340;2022-07-24T05:56:13;20.88;;;11.52;;
54795;SDS011;40693;43.884;20.340;2022-07-24T05:58:39;17.35;;;12.20;;
54795;SDS011;40693;43.884;20.340;2022-07-24T06:01:05;27.35;;;15.25;;
54795;SDS011;40693;43.884;20.340;2022-07-24T06:03:31;15.77;;;10.85;;
54795;SDS011;40693;43.884;20.340;2022-07-24T06:05:57;14.82;;;11.90;;
54795;SDS011;40693;43.884;20.340;2022-07-24T06:08:22;20.52;;;12.30;;
54795;SDS011;40693;43.884;20.340;2022-07-24T06:10:48;19.98;;;11.60;;
54795;SDS011;40693;43.884;20.340;2022-07-24T06:13:14;16.63;;;11.20;;
54795;SDS011;40693;43.884;20.340;2022-07-24T06:15:40;19.58;;;11.80;;
54795;SDS011;40693;43.884;20.340;2022-07-24T06:18:06;17.60;;;11.38;;
54795;SDS011;40693;43.884;20.340;2022-07-24T06:20:31;19.05;;;12.35;;
54795;SDS011;40693;43.884;20.340;2022-07-24T06:22:57;15.35;;;10.93;;
54795;SDS011;40693;43.884;20.340;2022-07-24T06:25:23;18.63;;;11.85;;
54795;SDS011;40693;43.884;20.340;2022-07-24T06:27:49;15.60;;;11.95;;
54795;SDS011;40693;43.884;20.340;2022-07-24T06:30:17;19.98;;;11.40;;
54795;SDS011;40693;43.884;20.340;2022-07-24T06:32:44;17.60;;;10.85;;
54795;SDS011;40693;43.884;20.340;2022-07-24T06:35:10;23.95;;;12.80;;
54795;SDS011;40693;43.884;20.340;2022-07-24T06:37:36;20.10;;;11.43;;
54795;SDS011;40693;43.884;20.340;2022-07-24T06:40:03;15.43;;;11.90;;
54795;SDS011;40693;43.884;20.340;2022-07-24T06:42:29;24.67;;;12.20;;
54795;SDS011;40693;43.884;20.340;2022-07-24T06:44:55;16.08;;;12.50;;
54795;SDS011;40693;43.884;20.340;2022-07-24T06:47:21;17.65;;;11.52;;
54795;SDS011;40693;43.884;20.340;2022-07-24T06:49:47;13.93;;;11.30;;
54795;SDS011;40693;43.884;20.340;2022-07-24T06:52:13;16.63;;;12.27;;
54795;SDS011;40693;43.884;20.340;2022-07-24T06:54:39;23.52;;;12.35;;
54795;SDS011;40693;43.884;20.340;2022-07-24T06:57:06;17.27;;;11.30;;
54795;SDS011;40693;43.884;20.340;2022-07-24T06:59:32;20.25;;;12.73;;
54795;SDS011;40693;43.884;20.340;2022-07-24T07:01:58;14.18;;;11.88;;
54795;SDS011;40693;43.884;20.340;2022-07-24T07:04:24;15.90;;;12.07;;
54795;SDS011;40693;43.884;20.340;2022-07-24T07:06:49;17.45;;;12.73;;
54795;SDS011;40693;43.884;20.340;2022-07-24T07:09:15;17.30;;;12.77;;
54795;SDS011;40693;43.884;20.340;2022-07-24T07:11:41;17.33;;;12.95;;
54795;SDS011;40693;43.884;20.340;2022-07-24T07:14:07;18.88;;;12.27;;
54795;SDS011;40693;43.884;20.340;2022-07-24T07:16:33;20.25;;;12.85;;
54795;SDS011;40693;43.884;20.340;2022-07-24T07:18:59;14.48;;;12.00;;
54795;SDS011;40693;43.884;20.340;2022-07-24T07:21:24;13.50;;;11.65;;
54795;SDS011;40693;43.884;20.340;2022-07-24T07:23:50;16.45;;;12.25;;
54795;SDS011;40693;43.884;20.340;2022-07-24T07:26:18;17.55;;;11.60;;
54795;SDS011;40693;43.884;20.340;2022-07-24T07:28:43;21.10;;;11.95;;
54795;SDS011;40693;43.884;20.340;2022-07-24T07:31:09;16.83;;;12.55;;
54795;SDS011;40693;43.884;20.340;2022-07-24T07:33:35;22.40;;;14.63;;
54795;SDS011;40693;43.884;20.340;2022-07-24T07:36:01;13.63;;;12.15;;
54795;SDS011;40693;43.884;20.340;2022-07-24T07:38:27;17.90;;;12.43;;
54795;SDS011;40693;43.884;20.340;2022-07-24T07:40:53;12.90;;;11.35;;
54795;SDS011;40693;43.884;20.340;2022-07-24T07:43:19;17.33;;;11.95;;
54795;SDS011;40693;43.884;20.340;2022-07-24T07:45:45;13.55;;;12.13;;
54795;SDS011;40693;43.884;20.340;2022-07-24T07:48:11;22.05;;;11.48;;
54795;SDS011;40693;43.884;20.340;2022-07-24T07:50:37;15.77;;;11.82;;
54795;SDS011;40693;43.884;20.340;2022-07-24T07:53:02;20.02;;;12.48;;
54795;SDS011;40693;43.884;20.340;2022-07-24T07:55:28;23.73;;;11.80;;
54795;SDS011;40693;43.884;20.340;2022-07-24T07:57:54;17.77;;;11.70;;
54795;SDS011;40693;43.884;20.340;2022-07-24T08:00:20;18.77;;;13.48;;
54795;SDS011;40693;43.884;20.340;2022-07-24T08:02:47;13.60;;;11.02;;
54795;SDS011;40693;43.884;20.340;2022-07-24T08:05:13;13.68;;;11.25;;
54795;SDS011;40693;43.884;20.340;2022-07-24T08:07:39;19.73;;;12.52;;
54795;SDS011;40693;43.884;20.340;2022-07-24T08:10:05;19.48;;;12.13;;
54795;SDS011;40693;43.884;20.340;2022-07-24T08:12:31;17.60;;;11.52;;
54795;SDS011;40693;43.884;20.340;2022-07-24T08:14:57;15.32;;;11.27;;
54795;SDS011;40693;43.884;20.340;2022-07-24T08:17:23;14.32;;;11.63;;
54795;SDS011;40693;43.884;20.340;2022-07-24T08:19:49;14.40;;;11.80;;
54795;SDS011;40693;43.884;20.340;2022-07-24T08:22:14;13.73;;;10.70;;
54795;SDS011;40693;43.884;20.340;2022-07-24T08:24:40;15.80;;;11.77;;
54795;SDS011;40693;43.884;20.340;2022-07-24T08:27:06;15.88;;;11.75;;
54795;SDS011;40693;43.884;20.340;2022-07-24T08:29:32;15.23;;;11.15;;
54795;SDS011;40693;43.884;20.340;2022-07-24T08:31:58;13.73;;;11.07;;
54795;SDS011;40693;43.884;20.340;2022-07-24T08:34:23;11.85;;;10.63;;
54795;SDS011;40693;43.884;20.340;2022-07-24T08:36:49;13.90;;;10.43;;
54795;SDS011;40693;43.884;20.340;2022-07-24T08:39:15;17.30;;;10.82;;
54795;SDS011;40693;43.884;20.340;2022-07-24T08:41:42;15.65;;;10.25;;
54795;SDS011;40693;43.884;20.340;2022-07-24T08:44:08;14.35;;;11.13;;
54795;SDS011;40693;43.884;20.340;2022-07-24T08:46:38;14.43;;;11.95;;
54795;SDS011;40693;43.884;20.340;2022-07-24T08:49:09;14.77;;;10.52;;
54795;SDS011;40693;43.884;20.340;2022-07-24T08:51:38;15.52;;;10.40;;
54795;SDS011;40693;43.884;20.340;2022-07-24T08:54:06;15.23;;;11.23;;
54795;SDS011;40693;43.884;20.340;2022-07-24T08:56:32;11.70;;;10.10;;
54795;SDS011;40693;43.884;20.340;2022-07-24T08:58:59;12.50;;;10.50;;
54795;SDS011;40693;43.884;20.340;2022-07-24T09:01:25;18.83;;;10.55;;
54795;SDS011;40693;43.884;20.340;2022-07-24T09:03:51;16.48;;;9.90;;
54795;SDS011;40693;43.884;20.340;2022-07-24T09:06:18;14.05;;;10.30;;
54795;SDS011;40693;43.884;20.340;2022-07-24T09:09:00;12.45;;;10.02;;
54795;SDS011;40693;43.884;20.340;2022-07-24T09:11:28;11.18;;;9.30;;
54795;SDS011;40693;43.884;20.340;2022-07-24T09:13:59;22.77;;;10.93;;
54795;SDS011;40693;43.884;20.340;2022-07-24T09:16:46;11.87;;;10.23;;
54795;SDS011;40693;43.884;20.340;2022-07-24T09:19:13;16.02;;;10.77;;
54795;SDS011;40693;43.884;20.340;2022-07-24T09:21:41;12.63;;;10.55;;
54795;SDS011;40693;43.884;20.340;2022-07-24T09:24:11;12.13;;;10.70;;
54795;SDS011;40693;43.884;20.340;2022-07-24T09:26:45;11.10;;;10.10;;
54795;SDS011;40693;43.884;20.340;2022-07-24T09:29:12;13.80;;;10.05;;
54795;SDS011;40693;43.884;20.340;2022-07-24T09:31:52;15.73;;;10.95;;
54795;SDS011;40693;43.884;20.340;2022-07-24T09:34:20;13.85;;;10.43;;
54795;SDS011;40693;43.884;20.340;2022-07-24T09:36:56;12.88;;;10.43;;
54795;SDS011;40693;43.884;20.340;2022-07-24T09:39:27;12.63;;;9.98;;
54795;SDS011;40693;43.884;20.340;2022-07-24T09:41:55;12.98;;;11.13;;
54795;SDS011;40693;43.884;20.340;2022-07-24T09:44:21;19.05;;;10.60;;
54795;SDS011;40693;43.884;20.340;2022-07-24T09:46:54;12.40;;;11.20;;
54795;SDS011;40693;43.884;20.340;2022-07-24T09:49:21;12.25;;;9.75;;
54795;SDS011;40693;43.884;20.340;2022-07-24T09:54:48;13.80;;;10.52;;
54795;SDS011;40693;43.884;20.340;2022-07-24T09:59:52;13.63;;;11.02;;
54795;SDS011;40693;43.884;20.340;2022-07-24T10:02:21;12.05;;;9.95;;
54795;SDS011;40693;43.884;20.340;2022-07-24T10:04:49;18.95;;;10.90;;
54795;SDS011;40693;43.884;20.340;2022-07-24T10:07:18;13.73;;;10.95;;
54795;SDS011;40693;43.884;20.340;2022-07-24T10:09:50;15.38;;;11.50;;
54795;SDS011;40693;43.884;20.340;2022-07-24T10:12:19;15.33;;;11.57;;
54795;SDS011;40693;43.884;20.340;2022-07-24T10:17:17;11.85;;;10.60;;
54795;SDS011;40693;43.884;20.340;2022-07-24T10:19:45;12.23;;;9.93;;
54795;SDS011;40693;43.884;20.340;2022-07-24T10:22:19;16.17;;;11.05;;
54795;SDS011;40693;43.884;20.340;2022-07-24T10:27:44;15.02;;;10.68;;
54795;SDS011;40693;43.884;20.340;2022-07-24T10:30:16;14.20;;;9.27;;
54795;SDS011;40693;43.884;20.340;2022-07-24T10:32:43;15.40;;;9.68;;
54795;SDS011;40693;43.884;20.340;2022-07-24T10:40:54;14.10;;;10.07;;
54795;SDS011;40693;43.884;20.340;2022-07-24T10:43:25;12.30;;;9.88;;
54795;SDS011;40693;43.884;20.340;2022-07-24T10:51:18;10.88;;;9.77;;
54795;SDS011;40693;43.884;20.340;2022-07-24T10:53:46;14.18;;;10.75;;
54795;SDS011;40693;43.884;20.340;2022-07-24T10:59:51;11.65;;;9.43;;
54795;SDS011;40693;43.884;20.340;2022-07-24T11:02:26;14.27;;;9.23;;
54795;SDS011;40693;43.884;20.340;2022-07-24T11:11:12;11.90;;;9.88;;
54795;SDS011;40693;43.884;20.340;2022-07-24T11:21:31;9.77;;;6.95;;
54795;SDS011;40693;43.884;20.340;2022-07-24T11:26:55;10.65;;;7.20;;
54795;SDS011;40693;43.884;20.340;2022-07-24T11:29:31;12.02;;;6.60;;
54795;SDS011;40693;43.884;20.340;2022-07-24T11:34:32;8.40;;;6.60;;
54795;SDS011;40693;43.884;20.340;2022-07-24T11:36:59;11.48;;;7.80;;
54795;SDS011;40693;43.884;20.340;2022-07-24T11:39:30;11.43;;;7.03;;
54795;SDS011;40693;43.884;20.340;2022-07-24T11:42:04;9.48;;;8.00;;
54795;SDS011;40693;43.884;20.340;2022-07-24T11:44:36;21.25;;;19.15;;
54795;SDS011;40693;43.884;20.340;2022-07-24T11:49:46;10.88;;;7.57;;
54795;SDS011;40693;43.884;20.340;2022-07-24T11:52:14;12.63;;;11.25;;
54795;SDS011;40693;43.884;20.340;2022-07-24T11:54:40;16.73;;;14.55;;
54795;SDS011;40693;43.884;20.340;2022-07-24T11:57:15;28.13;;;14.27;;
54795;SDS011;40693;43.884;20.340;2022-07-24T11:59:49;22.38;;;19.98;;
54795;SDS011;40693;43.884;20.340;2022-07-24T12:02:16;14.48;;;13.10;;
54795;SDS011;40693;43.884;20.340;2022-07-24T12:04:44;11.45;;;10.20;;
54795;SDS011;40693;43.884;20.340;2022-07-24T12:07:14;19.05;;;17.25;;
54795;SDS011;40693;43.884;20.340;2022-07-24T12:09:49;18.85;;;16.85;;
54795;SDS011;40693;43.884;20.340;2022-07-24T12:12:20;11.00;;;9.95;;
54795;SDS011;40693;43.884;20.340;2022-07-24T12:17:28;8.30;;;7.47;;
54795;SDS011;40693;43.884;20.340;2022-07-24T12:19:55;14.55;;;11.77;;
54795;SDS011;40693;43.884;20.340;2022-07-24T12:22:23;12.00;;;9.05;;
54795;SDS011;40693;43.884;20.340;2022-07-24T12:24:51;34.72;;;30.85;;
54795;SDS011;40693;43.884;20.340;2022-07-24T12:27:33;28.95;;;25.98;;
54795;SDS011;40693;43.884;20.340;2022-07-24T12:30:00;41.38;;;34.97;;
54795;SDS011;40693;43.884;20.340;2022-07-24T12:32:27;34.08;;;30.67;;
54795;SDS011;40693;43.884;20.340;2022-07-24T12:34:53;60.08;;;48.13;;
54795;SDS011;40693;43.884;20.340;2022-07-24T12:37:21;26.88;;;22.48;;
54795;SDS011;40693;43.884;20.340;2022-07-24T12:39:48;17.60;;;13.48;;
54795;SDS011;40693;43.884;20.340;2022-07-24T12:42:17;13.13;;;8.70;;
54795;SDS011;40693;43.884;20.340;2022-07-24T12:44:54;11.85;;;7.47;;
54795;SDS011;40693;43.884;20.340;2022-07-24T12:47:30;12.30;;;7.75;;
54795;SDS011;40693;43.884;20.340;2022-07-24T12:49:55;14.60;;;9.07;;
54795;SDS011;40693;43.884;20.340;2022-07-24T12:52:24;10.00;;;6.88;;
54795;SDS011;40693;43.884;20.340;2022-07-24T12:54:53;12.00;;;7.30;;
54795;SDS011;40693;43.884;20.340;2022-07-24T12:57:21;11.32;;;6.68;;
54795;SDS011;40693;43.884;20.340;2022-07-24T12:59:49;6.63;;;5.97;;
54795;SDS011;40693;43.884;20.340;2022-07-24T13:02:19;7.57;;;5.45;;
54795;SDS011;40693;43.884;20.340;2022-07-24T13:04:53;8.23;;;5.45;;
54795;SDS011;40693;43.884;20.340;2022-07-24T13:07:22;8.30;;;5.60;;
54795;SDS011;40693;43.884;20.340;2022-07-24T13:09:50;7.20;;;5.35;;
54795;SDS011;40693;43.884;20.340;2022-07-24T13:12:16;7.28;;;6.03;;
54795;SDS011;40693;43.884;20.340;2022-07-24T13:14:44;7.45;;;5.40;;
54795;SDS011;40693;43.884;20.340;2022-07-24T13:17:11;11.02;;;6.00;;
54795;SDS011;40693;43.884;20.340;2022-07-24T13:19:39;7.20;;;5.70;;
54795;SDS011;40693;43.884;20.340;2022-07-24T13:22:07;12.07;;;7.15;;
54795;SDS011;40693;43.884;20.340;2022-07-24T13:24:33;8.77;;;6.57;;
54795;SDS011;40693;43.884;20.340;2022-07-24T13:27:00;8.00;;;6.35;;
54795;SDS011;40693;43.884;20.340;2022-07-24T13:29:26;6.43;;;5.47;;
54795;SDS011;40693;43.884;20.340;2022-07-24T13:31:52;8.95;;;6.43;;
54795;SDS011;40693;43.884;20.340;2022-07-24T13:34:19;7.40;;;6.63;;
54795;SDS011;40693;43.884;20.340;2022-07-24T13:36:45;9.73;;;6.13;;
54795;SDS011;40693;43.884;20.340;2022-07-24T13:39:11;6.50;;;5.80;;
54795;SDS011;40693;43.884;20.340;2022-07-24T13:41:39;8.70;;;6.38;;
54795;SDS011;40693;43.884;20.340;2022-07-24T13:44:05;9.18;;;6.50;;
54795;SDS011;40693;43.884;20.340;2022-07-24T13:46:31;6.97;;;6.28;;
54795;SDS011;40693;43.884;20.340;2022-07-24T13:48:59;9.38;;;6.15;;
54795;SDS011;40693;43.884;20.340;2022-07-24T13:51:26;11.35;;;5.47;;
54795;SDS011;40693;43.884;20.340;2022-07-24T13:53:53;8.43;;;6.20;;
54795;SDS011;40693;43.884;20.340;2022-07-24T13:56:19;6.15;;;5.57;;
54795;SDS011;40693;43.884;20.340;2022-07-24T13:58:47;8.15;;;6.55;;
54795;SDS011;40693;43.884;20.340;2022-07-24T14:01:13;8.98;;;6.25;;
54795;SDS011;40693;43.884;20.340;2022-07-24T14:03:41;7.85;;;6.45;;
54795;SDS011;40693;43.884;20.340;2022-07-24T14:06:08;10.02;;;6.10;;
54795;SDS011;40693;43.884;20.340;2022-07-24T14:08:35;6.82;;;6.13;;
54795;SDS011;40693;43.884;20.340;2022-07-24T14:11:01;10.40;;;7.10;;
54795;SDS011;40693;43.884;20.340;2022-07-24T14:13:28;6.93;;;6.22;;
54795;SDS011;40693;43.884;20.340;2022-07-24T14:15:54;6.78;;;5.97;;
54795;SDS011;40693;43.884;20.340;2022-07-24T14:18:20;8.30;;;6.20;;
54795;SDS011;40693;43.884;20.340;2022-07-24T14:20:46;9.88;;;7.20;;
54795;SDS011;40693;43.884;20.340;2022-07-24T14:23:12;10.75;;;6.63;;
54795;SDS011;40693;43.884;20.340;2022-07-24T14:25:38;8.45;;;7.50;;
54795;SDS011;40693;43.884;20.340;2022-07-24T14:28:04;7.35;;;6.65;;
54795;SDS011;40693;43.884;20.340;2022-07-24T14:30:30;10.38;;;6.88;;
54795;SDS011;40693;43.884;20.340;2022-07-24T14:32:56;8.07;;;6.18;;
54795;SDS011;40693;43.884;20.340;2022-07-24T14:35:22;7.00;;;6.32;;
54795;SDS011;40693;43.884;20.340;2022-07-24T14:37:48;7.38;;;5.93;;
54795;SDS011;40693;43.884;20.340;2022-07-24T14:40:13;8.48;;;6.45;;
54795;SDS011;40693;43.884;20.340;2022-07-24T14:42:39;6.95;;;6.25;;
54795;SDS011;40693;43.884;20.340;2022-07-24T14:45:05;7.57;;;6.13;;
54795;SDS011;40693;43.884;20.340;2022-07-24T14:47:31;8.77;;;5.85;;
54795;SDS011;40693;43.884;20.340;2022-07-24T14:49:57;8.13;;;6.50;;
54795;SDS011;40693;43.884;20.340;2022-07-24T14:52:24;9.93;;;6.88;;
54795;SDS011;40693;43.884;20.340;2022-07-24T14:54:50;10.98;;;6.30;;
54795;SDS011;40693;43.884;20.340;2022-07-24T14:57:16;8.82;;;5.88;;
54795;SDS011;40693;43.884;20.340;2022-07-24T14:59:42;10.98;;;6.18;;
54795;SDS011;40693;43.884;20.340;2022-07-24T15:02:08;9.10;;;6.53;;